sensor_id;sensor_type;location;lat;lon;timestamp;P1;durP1;ratioP1;P2;durP2;ratioP2
13048;SDS011;6591;51.446;5.404;2023-04-24T00:02:02;10.90;;;6.90;;
13048;SDS011;6591;51.446;5.404;2023-04-24T00:04:29;8.57;;;6.67;;
13048;SDS011;6591;51.446;5.404;2023-04-24T00:06:59;9.23;;;7.00;;
13048;SDS011;6591;51.446;5.404;2023-04-24T00:09:26;9.97;;;7.13;;
13048;SDS011;6591;51.446;5.404;2023-04-24T00:11:53;8.50;;;6.87;;
13048;SDS011;6591;51.446;5.404;2023-04-24T00:14:20;8.10;;;7.07;;
13048;SDS011;6591;51.446;5.404;2023-04-24T00:16:47;9.10;;;7.43;;
13048;SDS011;6591;51.446;5.404;2023-04-24T00:19:15;9.10;;;7.10;;
13048;SDS011;6591;51.446;5.404;2023-04-24T00:21:42;8.23;;;7.40;;
13048;SDS011;6591;51.446;5.404;2023-04-24T00:24:10;8.27;;;7.40;;
13048;SDS011;6591;51.446;5.404;2023-04-24T00:26:37;8.80;;;7.37;;
13048;SDS011;6591;51.446;5.404;2023-04-24T00:29:04;19.97;;;8.27;;
13048;SDS011;6591;51.446;5.404;2023-04-24T00:31:31;11.70;;;8.27;;
13048;SDS011;6591;51.446;5.404;2023-04-24T00:34:01;11.00;;;7.93;;
13048;SDS011;6591;51.446;5.404;2023-04-24T00:36:29;9.00;;;7.70;;
13048;SDS011;6591;51.446;5.404;2023-04-24T00:38:57;9.97;;;8.10;;
13048;SDS011;6591;51.446;5.404;2023-04-24T00:41:24;9.97;;;8.30;;
13048;SDS011;6591;51.446;5.404;2023-04-24T00:43:52;9.50;;;7.23;;
13048;SDS011;6591;51.446;5.404;2023-04-24T00:46:20;9.23;;;8.13;;
13048;SDS011;6591;51.446;5.404;2023-04-24T00:48:48;9.00;;;7.67;;
13048;SDS011;6591;51.446;5.404;2023-04-24T00:51:16;12.47;;;8.23;;
13048;SDS011;6591;51.446;5.404;2023-04-24T00:53:43;9.37;;;7.80;;
13048;SDS011;6591;51.446;5.404;2023-04-24T00:56:10;13.13;;;8.50;;
13048;SDS011;6591;51.446;5.404;2023-04-24T00:58:37;9.60;;;7.80;;
13048;SDS011;6591;51.446;5.404;2023-04-24T01:01:05;10.63;;;7.97;;
13048;SDS011;6591;51.446;5.404;2023-04-24T01:03:33;10.53;;;8.77;;
13048;SDS011;6591;51.446;5.404;2023-04-24T01:06:03;9.57;;;8.33;;
13048;SDS011;6591;51.446;5.404;2023-04-24T01:08:31;11.73;;;8.17;;
13048;SDS011;6591;51.446;5.404;2023-04-24T01:11:03;12.60;;;9.10;;
13048;SDS011;6591;51.446;5.404;2023-04-24T01:13:31;11.63;;;9.40;;
13048;SDS011;6591;51.446;5.404;2023-04-24T01:15:59;13.77;;;9.40;;
13048;SDS011;6591;51.446;5.404;2023-04-24T01:18:27;12.43;;;9.27;;
13048;SDS011;6591;51.446;5.404;2023-04-24T01:20:58;12.83;;;9.90;;
13048;SDS011;6591;51.446;5.404;2023-04-24T01:23:30;10.10;;;9.07;;
13048;SDS011;6591;51.446;5.404;2023-04-24T01:25:57;13.10;;;9.90;;
13048;SDS011;6591;51.446;5.404;2023-04-24T01:28:24;12.27;;;10.40;;
13048;SDS011;6591;51.446;5.404;2023-04-24T01:30:52;15.13;;;11.30;;
13048;SDS011;6591;51.446;5.404;2023-04-24T01:33:22;12.47;;;9.87;;
13048;SDS011;6591;51.446;5.404;2023-04-24T01:35:50;12.20;;;10.17;;
13048;SDS011;6591;51.446;5.404;2023-04-24T01:38:17;12.47;;;10.87;;
13048;SDS011;6591;51.446;5.404;2023-04-24T01:40:44;14.33;;;11.07;;
13048;SDS011;6591;51.446;5.404;2023-04-24T01:43:12;15.23;;;11.67;;
13048;SDS011;6591;51.446;5.404;2023-04-24T01:45:39;15.47;;;11.43;;
13048;SDS011;6591;51.446;5.404;2023-04-24T01:48:06;13.83;;;11.97;;
13048;SDS011;6591;51.446;5.404;2023-04-24T01:50:33;14.20;;;10.90;;
13048;SDS011;6591;51.446;5.404;2023-04-24T01:53:02;13.37;;;11.97;;
13048;SDS011;6591;51.446;5.404;2023-04-24T01:55:29;14.37;;;11.40;;
13048;SDS011;6591;51.446;5.404;2023-04-24T01:57:57;15.17;;;12.60;;
13048;SDS011;6591;51.446;5.404;2023-04-24T02:00:26;15.07;;;12.50;;
13048;SDS011;6591;51.446;5.404;2023-04-24T02:02:53;17.27;;;13.40;;
13048;SDS011;6591;51.446;5.404;2023-04-24T02:05:20;13.20;;;11.70;;
13048;SDS011;6591;51.446;5.404;2023-04-24T02:07:48;14.17;;;12.23;;
13048;SDS011;6591;51.446;5.404;2023-04-24T02:10:15;14.63;;;12.00;;
13048;SDS011;6591;51.446;5.404;2023-04-24T02:12:42;13.90;;;11.73;;
13048;SDS011;6591;51.446;5.404;2023-04-24T02:15:09;12.47;;;11.03;;
13048;SDS011;6591;51.446;5.404;2023-04-24T02:17:37;15.43;;;12.23;;
13048;SDS011;6591;51.446;5.404;2023-04-24T02:20:05;16.37;;;12.13;;
13048;SDS011;6591;51.446;5.404;2023-04-24T02:22:33;15.47;;;11.83;;
13048;SDS011;6591;51.446;5.404;2023-04-24T02:25:01;14.73;;;11.03;;
13048;SDS011;6591;51.446;5.404;2023-04-24T02:27:28;14.87;;;11.17;;
13048;SDS011;6591;51.446;5.404;2023-04-24T02:29:56;17.77;;;11.37;;
13048;SDS011;6591;51.446;5.404;2023-04-24T02:32:23;17.57;;;11.57;;
13048;SDS011;6591;51.446;5.404;2023-04-24T02:34:51;16.90;;;12.13;;
13048;SDS011;6591;51.446;5.404;2023-04-24T02:37:18;14.30;;;11.87;;
13048;SDS011;6591;51.446;5.404;2023-04-24T02:39:45;14.53;;;11.40;;
13048;SDS011;6591;51.446;5.404;2023-04-24T02:42:12;12.47;;;11.07;;
13048;SDS011;6591;51.446;5.404;2023-04-24T02:44:39;13.50;;;10.70;;
13048;SDS011;6591;51.446;5.404;2023-04-24T02:47:07;13.33;;;10.90;;
13048;SDS011;6591;51.446;5.404;2023-04-24T02:49:34;12.40;;;10.47;;
13048;SDS011;6591;51.446;5.404;2023-04-24T02:52:01;15.33;;;10.70;;
13048;SDS011;6591;51.446;5.404;2023-04-24T02:54:28;12.97;;;10.90;;
13048;SDS011;6591;51.446;5.404;2023-04-24T02:56:55;15.00;;;11.33;;
13048;SDS011;6591;51.446;5.404;2023-04-24T02:59:23;13.83;;;11.43;;
13048;SDS011;6591;51.446;5.404;2023-04-24T03:01:50;14.03;;;12.03;;
13048;SDS011;6591;51.446;5.404;2023-04-24T03:04:17;14.60;;;11.03;;
13048;SDS011;6591;51.446;5.404;2023-04-24T03:06:47;12.57;;;10.90;;
13048;SDS011;6591;51.446;5.404;2023-04-24T03:09:14;14.97;;;10.07;;
13048;SDS011;6591;51.446;5.404;2023-04-24T03:11:41;11.17;;;10.00;;
13048;SDS011;6591;51.446;5.404;2023-04-24T03:14:08;14.07;;;10.30;;
13048;SDS011;6591;51.446;5.404;2023-04-24T03:16:36;14.33;;;9.97;;
13048;SDS011;6591;51.446;5.404;2023-04-24T03:19:05;11.07;;;9.63;;
13048;SDS011;6591;51.446;5.404;2023-04-24T03:21:39;12.80;;;9.43;;
13048;SDS011;6591;51.446;5.404;2023-04-24T03:24:07;11.83;;;9.67;;
13048;SDS011;6591;51.446;5.404;2023-04-24T03:26:36;12.40;;;9.27;;
13048;SDS011;6591;51.446;5.404;2023-04-24T03:29:16;11.50;;;8.47;;
13048;SDS011;6591;51.446;5.404;2023-04-24T03:31:44;12.27;;;8.77;;
13048;SDS011;6591;51.446;5.404;2023-04-24T03:34:11;9.63;;;8.20;;
13048;SDS011;6591;51.446;5.404;2023-04-24T03:36:38;12.23;;;8.90;;
13048;SDS011;6591;51.446;5.404;2023-04-24T03:39:07;10.97;;;8.97;;
13048;SDS011;6591;51.446;5.404;2023-04-24T03:41:36;11.20;;;9.33;;
13048;SDS011;6591;51.446;5.404;2023-04-24T03:44:09;12.17;;;9.53;;
13048;SDS011;6591;51.446;5.404;2023-04-24T03:46:36;10.90;;;9.00;;
13048;SDS011;6591;51.446;5.404;2023-04-24T03:49:03;9.57;;;8.40;;
13048;SDS011;6591;51.446;5.404;2023-04-24T03:51:35;12.37;;;9.07;;
13048;SDS011;6591;51.446;5.404;2023-04-24T03:54:32;9.90;;;8.33;;
13048;SDS011;6591;51.446;5.404;2023-04-24T03:56:59;14.10;;;9.67;;
13048;SDS011;6591;51.446;5.404;2023-04-24T03:59:30;10.17;;;8.93;;
13048;SDS011;6591;51.446;5.404;2023-04-24T04:02:07;9.23;;;8.27;;
13048;SDS011;6591;51.446;5.404;2023-04-24T04:04:35;10.03;;;8.23;;
13048;SDS011;6591;51.446;5.404;2023-04-24T04:07:02;8.83;;;7.77;;
13048;SDS011;6591;51.446;5.404;2023-04-24T04:09:29;9.67;;;8.00;;
13048;SDS011;6591;51.446;5.404;2023-04-24T04:11:57;9.17;;;8.03;;
13048;SDS011;6591;51.446;5.404;2023-04-24T04:14:24;9.33;;;7.80;;
13048;SDS011;6591;51.446;5.404;2023-04-24T04:16:51;9.13;;;7.90;;
13048;SDS011;6591;51.446;5.404;2023-04-24T04:19:20;11.33;;;9.30;;
13048;SDS011;6591;51.446;5.404;2023-04-24T04:21:48;8.43;;;7.63;;
13048;SDS011;6591;51.446;5.404;2023-04-24T04:24:38;7.90;;;7.10;;
13048;SDS011;6591;51.446;5.404;2023-04-24T04:27:08;7.30;;;6.57;;
13048;SDS011;6591;51.446;5.404;2023-04-24T04:29:44;7.70;;;7.00;;
13048;SDS011;6591;51.446;5.404;2023-04-24T04:32:13;7.23;;;6.53;;
13048;SDS011;6591;51.446;5.404;2023-04-24T04:34:40;7.57;;;6.67;;
13048;SDS011;6591;51.446;5.404;2023-04-24T04:37:09;7.20;;;6.50;;
13048;SDS011;6591;51.446;5.404;2023-04-24T04:39:48;6.93;;;6.13;;
13048;SDS011;6591;51.446;5.404;2023-04-24T04:42:19;6.80;;;6.10;;
13048;SDS011;6591;51.446;5.404;2023-04-24T04:44:46;6.47;;;5.87;;
13048;SDS011;6591;51.446;5.404;2023-04-24T04:47:17;6.67;;;5.80;;
13048;SDS011;6591;51.446;5.404;2023-04-24T04:49:49;6.70;;;6.00;;
13048;SDS011;6591;51.446;5.404;2023-04-24T04:52:23;6.57;;;5.87;;
13048;SDS011;6591;51.446;5.404;2023-04-24T04:55:04;6.97;;;6.27;;
13048;SDS011;6591;51.446;5.404;2023-04-24T04:57:52;6.27;;;5.67;;
13048;SDS011;6591;51.446;5.404;2023-04-24T05:00:19;5.60;;;5.10;;
13048;SDS011;6591;51.446;5.404;2023-04-24T05:02:50;6.27;;;5.67;;
13048;SDS011;6591;51.446;5.404;2023-04-24T05:05:18;6.53;;;5.87;;
13048;SDS011;6591;51.446;5.404;2023-04-24T05:07:45;6.93;;;6.23;;
13048;SDS011;6591;51.446;5.404;2023-04-24T05:10:12;7.47;;;5.53;;
13048;SDS011;6591;51.446;5.404;2023-04-24T05:12:39;5.87;;;5.37;;
13048;SDS011;6591;51.446;5.404;2023-04-24T05:15:08;5.10;;;4.60;;
13048;SDS011;6591;51.446;5.404;2023-04-24T05:17:36;4.77;;;4.37;;
13048;SDS011;6591;51.446;5.404;2023-04-24T05:20:03;5.17;;;4.67;;
13048;SDS011;6591;51.446;5.404;2023-04-24T05:22:34;5.57;;;3.60;;
13048;SDS011;6591;51.446;5.404;2023-04-24T05:25:02;3.37;;;2.97;;
13048;SDS011;6591;51.446;5.404;2023-04-24T05:27:36;2.47;;;2.27;;
13048;SDS011;6591;51.446;5.404;2023-04-24T05:30:09;2.67;;;1.80;;
13048;SDS011;6591;51.446;5.404;2023-04-24T05:32:37;2.63;;;2.10;;
13048;SDS011;6591;51.446;5.404;2023-04-24T05:35:04;2.47;;;1.77;;
13048;SDS011;6591;51.446;5.404;2023-04-24T05:37:31;4.23;;;2.03;;
13048;SDS011;6591;51.446;5.404;2023-04-24T05:39:59;2.40;;;1.97;;
13048;SDS011;6591;51.446;5.404;2023-04-24T05:42:26;3.30;;;1.73;;
13048;SDS011;6591;51.446;5.404;2023-04-24T05:44:53;4.93;;;1.80;;
13048;SDS011;6591;51.446;5.404;2023-04-24T05:47:23;2.97;;;2.07;;
13048;SDS011;6591;51.446;5.404;2023-04-24T05:49:52;3.53;;;1.97;;
13048;SDS011;6591;51.446;5.404;2023-04-24T05:52:19;3.20;;;1.80;;
13048;SDS011;6591;51.446;5.404;2023-04-24T05:54:47;3.73;;;1.67;;
13048;SDS011;6591;51.446;5.404;2023-04-24T05:57:19;4.57;;;1.87;;
13048;SDS011;6591;51.446;5.404;2023-04-24T05:59:57;3.63;;;2.03;;
13048;SDS011;6591;51.446;5.404;2023-04-24T06:02:25;3.03;;;1.93;;
13048;SDS011;6591;51.446;5.404;2023-04-24T06:04:52;2.80;;;2.07;;
13048;SDS011;6591;51.446;5.404;2023-04-24T06:07:19;4.77;;;2.07;;
13048;SDS011;6591;51.446;5.404;2023-04-24T06:09:47;2.23;;;2.03;;
13048;SDS011;6591;51.446;5.404;2023-04-24T06:12:15;3.20;;;2.47;;
13048;SDS011;6591;51.446;5.404;2023-04-24T06:14:54;3.40;;;2.10;;
13048;SDS011;6591;51.446;5.404;2023-04-24T06:17:47;2.37;;;2.10;;
13048;SDS011;6591;51.446;5.404;2023-04-24T06:20:15;3.57;;;2.63;;
13048;SDS011;6591;51.446;5.404;2023-04-24T06:22:42;3.50;;;2.80;;
13048;SDS011;6591;51.446;5.404;2023-04-24T06:25:09;4.27;;;2.87;;
13048;SDS011;6591;51.446;5.404;2023-04-24T06:27:36;4.53;;;3.70;;
13048;SDS011;6591;51.446;5.404;2023-04-24T06:30:03;5.40;;;4.33;;
13048;SDS011;6591;51.446;5.404;2023-04-24T06:32:32;4.77;;;4.27;;
13048;SDS011;6591;51.446;5.404;2023-04-24T06:34:59;6.73;;;4.90;;
13048;SDS011;6591;51.446;5.404;2023-04-24T06:37:26;6.37;;;5.00;;
13048;SDS011;6591;51.446;5.404;2023-04-24T06:39:53;6.67;;;5.23;;
13048;SDS011;6591;51.446;5.404;2023-04-24T06:42:20;7.27;;;5.27;;
13048;SDS011;6591;51.446;5.404;2023-04-24T06:44:48;6.80;;;5.00;;
13048;SDS011;6591;51.446;5.404;2023-04-24T06:47:15;10.67;;;5.27;;
13048;SDS011;6591;51.446;5.404;2023-04-24T06:49:42;7.50;;;5.50;;
13048;SDS011;6591;51.446;5.404;2023-04-24T06:52:10;8.43;;;6.47;;
13048;SDS011;6591;51.446;5.404;2023-04-24T06:54:37;8.97;;;6.07;;
13048;SDS011;6591;51.446;5.404;2023-04-24T06:57:04;9.87;;;7.40;;
13048;SDS011;6591;51.446;5.404;2023-04-24T06:59:31;10.53;;;8.30;;
13048;SDS011;6591;51.446;5.404;2023-04-24T07:01:58;11.90;;;8.03;;
13048;SDS011;6591;51.446;5.404;2023-04-24T07:04:25;11.07;;;9.20;;
13048;SDS011;6591;51.446;5.404;2023-04-24T07:06:53;9.47;;;8.13;;
13048;SDS011;6591;51.446;5.404;2023-04-24T07:09:22;14.57;;;9.23;;
13048;SDS011;6591;51.446;5.404;2023-04-24T07:11:51;12.07;;;9.37;;
13048;SDS011;6591;51.446;5.404;2023-04-24T07:14:20;10.47;;;8.37;;
13048;SDS011;6591;51.446;5.404;2023-04-24T07:16:47;11.63;;;8.70;;
13048;SDS011;6591;51.446;5.404;2023-04-24T07:19:14;12.20;;;9.00;;
13048;SDS011;6591;51.446;5.404;2023-04-24T07:21:41;10.17;;;8.60;;
13048;SDS011;6591;51.446;5.404;2023-04-24T07:24:08;13.53;;;9.30;;
13048;SDS011;6591;51.446;5.404;2023-04-24T07:26:37;11.37;;;9.40;;
13048;SDS011;6591;51.446;5.404;2023-04-24T07:29:06;12.20;;;9.50;;
13048;SDS011;6591;51.446;5.404;2023-04-24T07:31:34;12.07;;;9.33;;
13048;SDS011;6591;51.446;5.404;2023-04-24T07:34:01;11.00;;;8.57;;
13048;SDS011;6591;51.446;5.404;2023-04-24T07:36:28;10.10;;;8.43;;
13048;SDS011;6591;51.446;5.404;2023-04-24T07:38:55;11.40;;;7.77;;
13048;SDS011;6591;51.446;5.404;2023-04-24T07:41:23;11.53;;;7.00;;
13048;SDS011;6591;51.446;5.404;2023-04-24T07:43:51;13.27;;;6.73;;
13048;SDS011;6591;51.446;5.404;2023-04-24T07:46:19;10.93;;;5.87;;
13048;SDS011;6591;51.446;5.404;2023-04-24T07:48:49;10.97;;;5.97;;
13048;SDS011;6591;51.446;5.404;2023-04-24T07:51:31;15.07;;;6.13;;
13048;SDS011;6591;51.446;5.404;2023-04-24T07:54:01;11.63;;;5.57;;
13048;SDS011;6591;51.446;5.404;2023-04-24T07:56:27;9.17;;;5.47;;
13048;SDS011;6591;51.446;5.404;2023-04-24T07:58:57;8.80;;;4.97;;
13048;SDS011;6591;51.446;5.404;2023-04-24T08:01:24;11.53;;;6.10;;
13048;SDS011;6591;51.446;5.404;2023-04-24T08:03:51;15.57;;;7.10;;
13048;SDS011;6591;51.446;5.404;2023-04-24T08:06:19;14.27;;;6.93;;
13048;SDS011;6591;51.446;5.404;2023-04-24T08:08:47;11.83;;;6.60;;
13048;SDS011;6591;51.446;5.404;2023-04-24T08:11:14;11.33;;;6.13;;
13048;SDS011;6591;51.446;5.404;2023-04-24T08:13:41;12.57;;;6.87;;
13048;SDS011;6591;51.446;5.404;2023-04-24T08:16:07;9.93;;;6.47;;
13048;SDS011;6591;51.446;5.404;2023-04-24T08:18:34;13.50;;;6.07;;
13048;SDS011;6591;51.446;5.404;2023-04-24T08:21:02;11.90;;;6.43;;
13048;SDS011;6591;51.446;5.404;2023-04-24T08:23:29;11.60;;;5.77;;
13048;SDS011;6591;51.446;5.404;2023-04-24T08:25:56;12.27;;;6.03;;
13048;SDS011;6591;51.446;5.404;2023-04-24T08:28:24;12.23;;;5.60;;
13048;SDS011;6591;51.446;5.404;2023-04-24T08:30:51;13.30;;;6.27;;
13048;SDS011;6591;51.446;5.404;2023-04-24T08:33:23;10.57;;;5.50;;
13048;SDS011;6591;51.446;5.404;2023-04-24T08:35:51;12.40;;;5.80;;
13048;SDS011;6591;51.446;5.404;2023-04-24T08:38:19;13.23;;;4.80;;
13048;SDS011;6591;51.446;5.404;2023-04-24T08:40:46;12.33;;;5.03;;
13048;SDS011;6591;51.446;5.404;2023-04-24T08:43:16;9.87;;;4.20;;
13048;SDS011;6591;51.446;5.404;2023-04-24T08:45:43;9.23;;;4.70;;
13048;SDS011;6591;51.446;5.404;2023-04-24T08:48:10;12.10;;;4.70;;
13048;SDS011;6591;51.446;5.404;2023-04-24T08:50:55;13.97;;;5.00;;
13048;SDS011;6591;51.446;5.404;2023-04-24T08:53:24;13.63;;;4.77;;
13048;SDS011;6591;51.446;5.404;2023-04-24T08:55:53;12.43;;;4.80;;
13048;SDS011;6591;51.446;5.404;2023-04-24T08:58:24;9.00;;;4.53;;
13048;SDS011;6591;51.446;5.404;2023-04-24T09:00:57;9.47;;;4.57;;
13048;SDS011;6591;51.446;5.404;2023-04-24T09:03:25;13.10;;;4.97;;
13048;SDS011;6591;51.446;5.404;2023-04-24T09:05:55;14.03;;;4.60;;
13048;SDS011;6591;51.446;5.404;2023-04-24T09:08:25;9.53;;;4.00;;
13048;SDS011;6591;51.446;5.404;2023-04-24T09:10:54;11.67;;;4.00;;
13048;SDS011;6591;51.446;5.404;2023-04-24T09:13:21;8.93;;;3.40;;
13048;SDS011;6591;51.446;5.404;2023-04-24T09:15:48;7.67;;;2.90;;
13048;SDS011;6591;51.446;5.404;2023-04-24T09:18:15;7.03;;;3.13;;
13048;SDS011;6591;51.446;5.404;2023-04-24T09:23:27;5.27;;;2.83;;
13048;SDS011;6591;51.446;5.404;2023-04-24T09:25:57;9.90;;;3.67;;
13048;SDS011;6591;51.446;5.404;2023-04-24T09:28:32;10.10;;;3.70;;
13048;SDS011;6591;51.446;5.404;2023-04-24T09:36:47;12.93;;;3.70;;
13048;SDS011;6591;51.446;5.404;2023-04-24T09:39:15;7.77;;;3.40;;
13048;SDS011;6591;51.446;5.404;2023-04-24T09:41:47;8.80;;;3.57;;
13048;SDS011;6591;51.446;5.404;2023-04-24T09:44:20;12.80;;;3.63;;
13048;SDS011;6591;51.446;5.404;2023-04-24T09:46:51;13.10;;;3.60;;
13048;SDS011;6591;51.446;5.404;2023-04-24T09:49:24;9.70;;;3.00;;
13048;SDS011;6591;51.446;5.404;2023-04-24T09:54:35;8.60;;;2.80;;
13048;SDS011;6591;51.446;5.404;2023-04-24T09:57:04;9.43;;;3.00;;
13048;SDS011;6591;51.446;5.404;2023-04-24T09:59:34;6.73;;;2.80;;
13048;SDS011;6591;51.446;5.404;2023-04-24T10:02:02;6.50;;;2.30;;
13048;SDS011;6591;51.446;5.404;2023-04-24T10:04:53;7.17;;;2.60;;
13048;SDS011;6591;51.446;5.404;2023-04-24T10:07:25;7.33;;;2.93;;
13048;SDS011;6591;51.446;5.404;2023-04-24T10:09:53;8.53;;;3.33;;
13048;SDS011;6591;51.446;5.404;2023-04-24T10:12:21;6.47;;;2.63;;
13048;SDS011;6591;51.446;5.404;2023-04-24T10:14:49;7.03;;;2.77;;
13048;SDS011;6591;51.446;5.404;2023-04-24T10:17:18;4.83;;;2.30;;
13048;SDS011;6591;51.446;5.404;2023-04-24T10:19:47;5.53;;;2.63;;
13048;SDS011;6591;51.446;5.404;2023-04-24T10:22:14;9.07;;;2.80;;
13048;SDS011;6591;51.446;5.404;2023-04-24T10:24:44;4.67;;;2.10;;
13048;SDS011;6591;51.446;5.404;2023-04-24T10:27:14;6.07;;;2.80;;
13048;SDS011;6591;51.446;5.404;2023-04-24T10:29:42;5.23;;;2.30;;
13048;SDS011;6591;51.446;5.404;2023-04-24T10:32:11;6.80;;;2.40;;
13048;SDS011;6591;51.446;5.404;2023-04-24T10:34:39;6.37;;;2.43;;
13048;SDS011;6591;51.446;5.404;2023-04-24T10:37:06;3.23;;;1.80;;
13048;SDS011;6591;51.446;5.404;2023-04-24T10:39:33;7.83;;;2.10;;
13048;SDS011;6591;51.446;5.404;2023-04-24T10:42:01;8.43;;;2.40;;
13048;SDS011;6591;51.446;5.404;2023-04-24T10:44:37;5.77;;;1.90;;
13048;SDS011;6591;51.446;5.404;2023-04-24T10:47:07;2.60;;;1.60;;
13048;SDS011;6591;51.446;5.404;2023-04-24T10:49:40;5.27;;;1.80;;
13048;SDS011;6591;51.446;5.404;2023-04-24T10:52:08;4.87;;;1.50;;
13048;SDS011;6591;51.446;5.404;2023-04-24T10:54:36;5.83;;;2.07;;
13048;SDS011;6591;51.446;5.404;2023-04-24T10:59:49;5.47;;;1.70;;
13048;SDS011;6591;51.446;5.404;2023-04-24T11:02:36;3.57;;;1.37;;
13048;SDS011;6591;51.446;5.404;2023-04-24T11:05:06;3.27;;;1.30;;
13048;SDS011;6591;51.446;5.404;2023-04-24T11:10:44;4.63;;;1.97;;
13048;SDS011;6591;51.446;5.404;2023-04-24T11:13:15;4.73;;;1.50;;
13048;SDS011;6591;51.446;5.404;2023-04-24T11:16:11;2.37;;;1.20;;
13048;SDS011;6591;51.446;5.404;2023-04-24T11:18:41;5.00;;;1.50;;
13048;SDS011;6591;51.446;5.404;2023-04-24T11:21:17;3.40;;;1.33;;
13048;SDS011;6591;51.446;5.404;2023-04-24T11:23:44;3.60;;;1.30;;
13048;SDS011;6591;51.446;5.404;2023-04-24T11:26:14;2.53;;;1.20;;
13048;SDS011;6591;51.446;5.404;2023-04-24T11:28:50;2.93;;;1.53;;
13048;SDS011;6591;51.446;5.404;2023-04-24T11:34:06;2.57;;;1.33;;
13048;SDS011;6591;51.446;5.404;2023-04-24T11:36:35;2.53;;;1.30;;
13048;SDS011;6591;51.446;5.404;2023-04-24T11:39:03;1.93;;;1.07;;
13048;SDS011;6591;51.446;5.404;2023-04-24T11:41:31;4.33;;;1.43;;
13048;SDS011;6591;51.446;5.404;2023-04-24T11:44:00;4.23;;;1.50;;
13048;SDS011;6591;51.446;5.404;2023-04-24T11:46:30;4.00;;;1.50;;
13048;SDS011;6591;51.446;5.404;2023-04-24T11:48:58;2.70;;;1.20;;
13048;SDS011;6591;51.446;5.404;2023-04-24T11:51:26;3.40;;;1.13;;
13048;SDS011;6591;51.446;5.404;2023-04-24T11:54:07;3.00;;;1.30;;
13048;SDS011;6591;51.446;5.404;2023-04-24T11:56:34;2.87;;;1.30;;
13048;SDS011;6591;51.446;5.404;2023-04-24T11:59:03;3.17;;;1.37;;
13048;SDS011;6591;51.446;5.404;2023-04-24T12:01:42;1.57;;;1.20;;
13048;SDS011;6591;51.446;5.404;2023-04-24T12:04:13;2.93;;;1.23;;
13048;SDS011;6591;51.446;5.404;2023-04-24T12:06:59;2.07;;;0.97;;
13048;SDS011;6591;51.446;5.404;2023-04-24T12:09:44;3.47;;;1.20;;
13048;SDS011;6591;51.446;5.404;2023-04-24T12:12:16;2.70;;;1.07;;
13048;SDS011;6591;51.446;5.404;2023-04-24T12:14:52;3.37;;;1.10;;
13048;SDS011;6591;51.446;5.404;2023-04-24T12:17:29;3.00;;;1.10;;
13048;SDS011;6591;51.446;5.404;2023-04-24T12:19:58;3.83;;;0.90;;
13048;SDS011;6591;51.446;5.404;2023-04-24T12:22:26;1.57;;;1.10;;
13048;SDS011;6591;51.446;5.404;2023-04-24T12:25:03;2.00;;;1.30;;
13048;SDS011;6591;51.446;5.404;2023-04-24T12:27:32;2.80;;;1.03;;
13048;SDS011;6591;51.446;5.404;2023-04-24T12:30:00;5.03;;;1.30;;
13048;SDS011;6591;51.446;5.404;2023-04-24T12:32:29;2.53;;;1.00;;
13048;SDS011;6591;51.446;5.404;2023-04-24T12:34:57;1.57;;;1.00;;
13048;SDS011;6591;51.446;5.404;2023-04-24T12:37:25;2.43;;;1.07;;
13048;SDS011;6591;51.446;5.404;2023-04-24T12:40:08;2.80;;;1.20;;
13048;SDS011;6591;51.446;5.404;2023-04-24T12:45:13;1.73;;;0.90;;
13048;SDS011;6591;51.446;5.404;2023-04-24T12:47:41;1.73;;;0.90;;
13048;SDS011;6591;51.446;5.404;2023-04-24T12:50:13;1.60;;;1.00;;
13048;SDS011;6591;51.446;5.404;2023-04-24T12:52:42;4.13;;;1.13;;
13048;SDS011;6591;51.446;5.404;2023-04-24T12:55:09;2.07;;;1.13;;
13048;SDS011;6591;51.446;5.404;2023-04-24T12:57:39;2.73;;;1.30;;
13048;SDS011;6591;51.446;5.404;2023-04-24T13:00:06;1.10;;;0.90;;
13048;SDS011;6591;51.446;5.404;2023-04-24T13:02:35;2.03;;;1.00;;
13048;SDS011;6591;51.446;5.404;2023-04-24T13:05:03;2.27;;;0.90;;
13048;SDS011;6591;51.446;5.404;2023-04-24T13:07:30;2.13;;;1.10;;
13048;SDS011;6591;51.446;5.404;2023-04-24T13:09:57;2.03;;;1.08;;
13048;SDS011;6591;51.446;5.404;2023-04-24T13:12:24;2.90;;;1.20;;
13048;SDS011;6591;51.446;5.404;2023-04-24T13:14:53;2.40;;;1.10;;
13048;SDS011;6591;51.446;5.404;2023-04-24T13:17:20;2.63;;;1.13;;
13048;SDS011;6591;51.446;5.404;2023-04-24T13:19:49;1.87;;;1.20;;
13048;SDS011;6591;51.446;5.404;2023-04-24T13:22:17;3.93;;;1.40;;
13048;SDS011;6591;51.446;5.404;2023-04-24T13:24:45;2.90;;;1.47;;
13048;SDS011;6591;51.446;5.404;2023-04-24T13:27:12;2.07;;;1.20;;
13048;SDS011;6591;51.446;5.404;2023-04-24T13:29:39;3.30;;;1.60;;
13048;SDS011;6591;51.446;5.404;2023-04-24T13:32:07;4.03;;;1.47;;
13048;SDS011;6591;51.446;5.404;2023-04-24T13:34:35;3.13;;;1.47;;
13048;SDS011;6591;51.446;5.404;2023-04-24T13:37:03;2.53;;;1.30;;
13048;SDS011;6591;51.446;5.404;2023-04-24T13:39:30;3.67;;;1.70;;
13048;SDS011;6591;51.446;5.404;2023-04-24T13:41:58;6.13;;;1.70;;
13048;SDS011;6591;51.446;5.404;2023-04-24T13:44:26;2.70;;;1.17;;
13048;SDS011;6591;51.446;5.404;2023-04-24T13:46:54;2.47;;;1.23;;
13048;SDS011;6591;51.446;5.404;2023-04-24T13:49:23;2.33;;;1.30;;
13048;SDS011;6591;51.446;5.404;2023-04-24T13:51:52;3.83;;;1.50;;
13048;SDS011;6591;51.446;5.404;2023-04-24T13:54:21;3.90;;;1.83;;
13048;SDS011;6591;51.446;5.404;2023-04-24T13:56:49;2.43;;;1.50;;
13048;SDS011;6591;51.446;5.404;2023-04-24T13:59:19;3.90;;;1.80;;
13048;SDS011;6591;51.446;5.404;2023-04-24T14:01:47;4.63;;;1.73;;
13048;SDS011;6591;51.446;5.404;2023-04-24T14:04:14;5.47;;;1.83;;
13048;SDS011;6591;51.446;5.404;2023-04-24T14:06:42;4.00;;;1.83;;
13048;SDS011;6591;51.446;5.404;2023-04-24T14:09:10;2.50;;;1.57;;
13048;SDS011;6591;51.446;5.404;2023-04-24T14:11:38;3.83;;;1.40;;
13048;SDS011;6591;51.446;5.404;2023-04-24T14:14:05;3.70;;;1.70;;
13048;SDS011;6591;51.446;5.404;2023-04-24T14:16:32;4.17;;;1.53;;
13048;SDS011;6591;51.446;5.404;2023-04-24T14:18:59;3.70;;;1.80;;
13048;SDS011;6591;51.446;5.404;2023-04-24T14:21:26;4.77;;;1.73;;
13048;SDS011;6591;51.446;5.404;2023-04-24T14:23:53;5.53;;;1.80;;
13048;SDS011;6591;51.446;5.404;2023-04-24T14:26:20;5.67;;;1.37;;
13048;SDS011;6591;51.446;5.404;2023-04-24T14:28:48;4.70;;;1.60;;
13048;SDS011;6591;51.446;5.404;2023-04-24T14:31:17;2.47;;;1.30;;
13048;SDS011;6591;51.446;5.404;2023-04-24T14:33:44;3.30;;;1.50;;
13048;SDS011;6591;51.446;5.404;2023-04-24T14:36:12;4.23;;;1.40;;
13048;SDS011;6591;51.446;5.404;2023-04-24T14:38:39;2.80;;;1.60;;
13048;SDS011;6591;51.446;5.404;2023-04-24T14:41:06;4.30;;;1.60;;
13048;SDS011;6591;51.446;5.404;2023-04-24T14:43:39;3.03;;;1.50;;
13048;SDS011;6591;51.446;5.404;2023-04-24T14:46:06;3.03;;;1.60;;
13048;SDS011;6591;51.446;5.404;2023-04-24T14:48:34;3.47;;;1.60;;
13048;SDS011;6591;51.446;5.404;2023-04-24T14:51:01;3.47;;;1.47;;
13048;SDS011;6591;51.446;5.404;2023-04-24T14:53:28;2.60;;;1.30;;
13048;SDS011;6591;51.446;5.404;2023-04-24T14:55:55;2.20;;;1.20;;
13048;SDS011;6591;51.446;5.404;2023-04-24T14:58:22;2.93;;;1.47;;
13048;SDS011;6591;51.446;5.404;2023-04-24T15:00:49;2.33;;;1.27;;
13048;SDS011;6591;51.446;5.404;2023-04-24T15:03:18;3.50;;;1.30;;
13048;SDS011;6591;51.446;5.404;2023-04-24T15:05:45;2.00;;;1.30;;
13048;SDS011;6591;51.446;5.404;2023-04-24T15:08:13;1.33;;;1.13;;
13048;SDS011;6591;51.446;5.404;2023-04-24T15:10:40;4.47;;;1.60;;
13048;SDS011;6591;51.446;5.404;2023-04-24T15:13:07;3.27;;;1.40;;
13048;SDS011;6591;51.446;5.404;2023-04-24T15:15:34;2.43;;;1.30;;
13048;SDS011;6591;51.446;5.404;2023-04-24T15:18:01;3.10;;;1.40;;
13048;SDS011;6591;51.446;5.404;2023-04-24T15:20:28;2.30;;;1.00;;
13048;SDS011;6591;51.446;5.404;2023-04-24T15:22:55;2.27;;;1.30;;
13048;SDS011;6591;51.446;5.404;2023-04-24T15:25:22;2.28;;;1.45;;
13048;SDS011;6591;51.446;5.404;2023-04-24T15:27:49;2.30;;;1.57;;
13048;SDS011;6591;51.446;5.404;2023-04-24T15:30:16;2.08;;;1.23;;